createdAt,value
2017-08-18T00:00:35.271Z,0
2017-08-18T00:01:34.959Z,0
2017-08-18T00:02:34.993Z,0
2017-08-18T00:03:35.344Z,0
2017-08-18T00:04:35.368Z,0
2017-08-18T00:05:35.403Z,0
2017-08-18T00:06:35.104Z,0
2017-08-18T00:07:35.470Z,0
2017-08-18T00:08:34.866Z,0
2017-08-18T00:09:34.888Z,0
2017-08-18T00:10:34.919Z,0
2017-08-18T00:11:35.821Z,0
2017-08-18T00:12:35.291Z,0
2017-08-18T00:13:35.323Z,0
2017-08-18T00:14:35.347Z,0
2017-08-18T00:15:35.688Z,0
2017-08-18T00:16:35.345Z,0
2017-08-18T00:17:35.750Z,0
2017-08-18T00:18:35.465Z,0
2017-08-18T00:19:35.531Z,0
2017-08-18T00:20:35.832Z,0
2017-08-18T00:21:35.850Z,0
2017-08-18T00:22:35.901Z,0
2017-08-18T00:23:35.622Z,0
2017-08-18T00:24:35.338Z,0
2017-08-18T00:25:35.975Z,0
2017-08-18T00:26:36.057Z,0
2017-08-18T00:27:35.722Z,0
2017-08-18T00:28:36.067Z,0
2017-08-18T00:29:36.095Z,0
2017-08-18T00:30:36.123Z,0
2017-08-18T00:31:35.524Z,0
2017-08-18T00:32:35.566Z,0
2017-08-18T00:33:36.210Z,0
2017-08-18T00:34:35.936Z,0
2017-08-18T00:35:35.959Z,0
2017-08-18T00:36:35.642Z,0
2017-08-18T00:37:36.325Z,0
2017-08-18T00:38:35.742Z,0
2017-08-18T00:39:36.376Z,0
2017-08-18T00:40:36.104Z,0
2017-08-18T00:41:36.433Z,0
2017-08-18T00:42:36.154Z,0
2017-08-18T00:43:36.508Z,0
2017-08-18T00:44:36.544Z,0
2017-08-18T00:45:35.929Z,0
2017-08-18T00:46:36.849Z,0
2017-08-18T00:47:36.306Z,0
2017-08-18T00:48:36.690Z,0
2017-08-18T00:49:36.370Z,0
2017-08-18T00:50:36.083Z,0
2017-08-18T00:51:37.037Z,0
2017-08-18T00:52:36.142Z,0
2017-08-18T00:53:36.163Z,0
2017-08-18T00:54:36.822Z,0
2017-08-18T00:55:36.225Z,0
2017-08-18T00:56:36.509Z,0
2017-08-18T00:57:36.614Z,0
2017-08-18T00:58:36.623Z,0
2017-08-18T00:59:36.344Z,0
2017-08-18T01:00:37.002Z,0
2017-08-18T01:01:36.973Z,0
2017-08-18T01:02:37.062Z,0
2017-08-18T01:03:37.085Z,0
2017-08-18T01:04:37.112Z,0
2017-08-18T01:05:36.823Z,0
2017-08-18T01:06:36.802Z,0
2017-08-18T01:07:37.211Z,0
2017-08-18T01:08:36.917Z,0
2017-08-18T01:09:36.930Z,0
2017-08-18T01:10:37.283Z,0
2017-08-18T01:11:36.999Z,0
2017-08-18T01:12:37.354Z,0
2017-08-18T01:13:37.051Z,0
2017-08-18T01:14:37.418Z,0
2017-08-18T01:15:37.156Z,0
2017-08-18T01:16:36.785Z,0
2017-08-18T01:17:37.175Z,0
2017-08-18T01:18:36.896Z,0
2017-08-18T01:19:37.232Z,0
2017-08-18T01:20:37.264Z,0
2017-08-18T01:21:37.232Z,0
2017-08-18T01:22:37.323Z,0
2017-08-18T01:23:37.038Z,0
2017-08-18T01:24:37.092Z,0
2017-08-18T01:25:37.714Z,0
2017-08-18T01:26:38.049Z,0
2017-08-18T01:27:37.173Z,0
2017-08-18T01:28:37.492Z,0
2017-08-18T01:29:37.837Z,0
2017-08-18T01:30:37.861Z,0
2017-08-18T01:31:37.876Z,0
2017-08-18T01:32:37.610Z,0
2017-08-18T01:33:37.950Z,0
2017-08-18T01:34:37.679Z,0
2017-08-18T01:35:38.013Z,0
2017-08-18T01:36:38.350Z,0
2017-08-18T01:37:37.451Z,0
2017-08-18T01:38:37.775Z,0
2017-08-18T01:39:38.127Z,0
2017-08-18T01:40:38.154Z,0
2017-08-18T01:41:38.430Z,0
2017-08-18T01:42:38.203Z,0
2017-08-18T01:43:38.243Z,0
2017-08-18T01:44:37.961Z,0
2017-08-18T01:45:37.986Z,0
2017-08-18T01:46:38.018Z,0
2017-08-18T01:47:38.352Z,0
2017-08-18T01:48:38.083Z,0
2017-08-18T01:49:38.417Z,0
2017-08-18T01:50:38.446Z,0
2017-08-18T01:51:38.158Z,0
2017-08-18T01:52:37.879Z,0
2017-08-18T01:53:38.533Z,0
2017-08-18T01:54:37.630Z,0
2017-08-18T01:55:38.270Z,0
2017-08-18T01:56:38.615Z,0
2017-08-18T01:57:38.655Z,0
2017-08-18T01:58:38.050Z,0
2017-08-18T01:59:38.389Z,0
2017-08-18T02:00:38.422Z,0
2017-08-18T02:01:38.451Z,0
2017-08-18T02:02:38.524Z,0
2017-08-18T02:03:38.821Z,0
2017-08-18T02:04:38.545Z,0
2017-08-18T02:05:37.944Z,0
2017-08-18T02:06:38.917Z,0
2017-08-18T02:07:38.875Z,0
2017-08-18T02:08:38.971Z,0
2017-08-18T02:09:38.690Z,0
2017-08-18T02:10:39.022Z,0
2017-08-18T02:11:38.746Z,0
2017-08-18T02:12:39.020Z,0
2017-08-18T02:13:39.114Z,0
2017-08-18T02:14:39.145Z,0
2017-08-18T02:15:39.163Z,0
2017-08-18T02:16:38.879Z,0
2017-08-18T02:17:38.880Z,0
2017-08-18T02:18:38.954Z,0
2017-08-18T02:19:38.985Z,0
2017-08-18T02:20:38.998Z,0
2017-08-18T02:21:39.341Z,0
2017-08-18T02:22:39.324Z,0
2017-08-18T02:23:39.428Z,0
2017-08-18T02:24:39.122Z,0
2017-08-18T02:25:39.458Z,0
2017-08-18T02:26:39.495Z,0
2017-08-18T02:27:39.500Z,0
2017-08-18T02:28:38.924Z,0
2017-08-18T02:29:39.266Z,0
2017-08-18T02:30:38.674Z,0
2017-08-18T02:31:39.008Z,0
2017-08-18T02:32:39.650Z,0
2017-08-18T02:33:39.380Z,0
2017-08-18T02:34:39.410Z,0
2017-08-18T02:35:39.119Z,0
2017-08-18T02:36:39.165Z,0
2017-08-18T02:37:39.748Z,0
2017-08-18T02:38:39.213Z,0
2017-08-18T02:39:39.854Z,0
2017-08-18T02:40:39.586Z,0
2017-08-18T02:41:39.294Z,0
2017-08-18T02:42:39.582Z,0
2017-08-18T02:43:39.977Z,0
2017-08-18T02:44:39.702Z,0
2017-08-18T02:45:40.035Z,0
2017-08-18T02:46:39.755Z,0
2017-08-18T02:47:40.085Z,0
2017-08-18T02:48:39.801Z,0
2017-08-18T02:49:39.226Z,0
2017-08-18T02:50:39.862Z,0
2017-08-18T02:51:39.905Z,0
2017-08-18T02:52:39.871Z,0
2017-08-18T02:53:39.948Z,0
2017-08-18T02:54:39.657Z,0
2017-08-18T02:55:40.019Z,0
2017-08-18T02:56:40.358Z,0
2017-08-18T02:57:40.645Z,0
2017-08-18T02:58:39.782Z,0
2017-08-18T02:59:40.434Z,0
2017-08-18T03:00:40.462Z,0
2017-08-18T03:01:40.491Z,0
2017-08-18T03:02:40.196Z,0
2017-08-18T03:03:40.549Z,0
2017-08-18T03:04:40.269Z,0
2017-08-18T03:05:40.295Z,0
2017-08-18T03:06:40.335Z,0
2017-08-18T03:07:40.964Z,0
2017-08-18T03:08:40.381Z,0
2017-08-18T03:09:40.417Z,0
2017-08-18T03:10:40.439Z,0
2017-08-18T03:11:40.780Z,0
2017-08-18T03:12:40.753Z,0
2017-08-18T03:13:40.842Z,0
2017-08-18T03:14:40.867Z,0
2017-08-18T03:15:40.899Z,0
2017-08-18T03:16:39.987Z,0
2017-08-18T03:17:41.211Z,0
2017-08-18T03:18:40.985Z,0
2017-08-18T03:19:41.011Z,0
2017-08-18T03:20:40.415Z,0
2017-08-18T03:21:41.071Z,0
2017-08-18T03:22:40.736Z,0
2017-08-18T03:23:40.502Z,0
2017-08-18T03:24:41.163Z,0
2017-08-18T03:25:40.893Z,0
2017-08-18T03:26:41.212Z,0
2017-08-18T03:27:40.980Z,0
2017-08-18T03:28:40.967Z,0
2017-08-18T03:29:40.994Z,0
2017-08-18T03:30:40.723Z,0
2017-08-18T03:31:41.038Z,0
2017-08-18T03:32:41.064Z,0
2017-08-18T03:33:41.109Z,0
2017-08-18T03:34:41.135Z,0
2017-08-18T03:35:41.155Z,0
2017-08-18T03:36:41.504Z,0
2017-08-18T03:37:41.207Z,0
2017-08-18T03:38:40.630Z,0
2017-08-18T03:39:41.587Z,0
2017-08-18T03:40:41.312Z,0
2017-08-18T03:41:41.668Z,0
2017-08-18T03:42:41.936Z,0
2017-08-18T03:43:41.394Z,0
2017-08-18T03:44:41.734Z,0
2017-08-18T03:45:41.458Z,0
2017-08-18T03:46:41.508Z,0
2017-08-18T03:47:41.549Z,0
2017-08-18T03:48:41.856Z,0
2017-08-18T03:49:41.562Z,0
2017-08-18T03:50:41.903Z,0
2017-08-18T03:51:41.620Z,0
2017-08-18T03:52:42.265Z,0
2017-08-18T03:53:41.997Z,0
2017-08-18T03:54:41.398Z,0
2017-08-18T03:55:42.051Z,0
2017-08-18T03:56:42.076Z,0
2017-08-18T03:57:42.114Z,0
2017-08-18T03:58:42.134Z,0
2017-08-18T03:59:41.547Z,0
2017-08-18T04:00:41.908Z,0
2017-08-18T04:01:41.293Z,0
2017-08-18T04:02:41.945Z,0
2017-08-18T04:03:42.582Z,0
2017-08-18T04:04:42.313Z,0
2017-08-18T04:05:41.712Z,0
2017-08-18T04:06:41.749Z,0
2017-08-18T04:07:42.398Z,0
2017-08-18T04:08:42.159Z,0
2017-08-18T04:09:41.823Z,4
2017-08-18T04:10:42.175Z,4
2017-08-18T04:11:42.525Z,4
2017-08-18T04:12:42.241Z,0
2017-08-18T04:13:42.558Z,4
2017-08-18T04:14:41.980Z,8
2017-08-18T04:15:42.330Z,8
2017-08-18T04:16:42.033Z,8
2017-08-18T04:17:42.057Z,8
2017-08-18T04:18:42.649Z,8
2017-08-18T04:19:42.435Z,12
2017-08-18T04:20:42.455Z,12
2017-08-18T04:21:42.493Z,12
2017-08-18T04:22:42.519Z,20
2017-08-18T04:23:42.483Z,20
2017-08-18T04:24:42.579Z,20
2017-08-18T04:25:42.296Z,24
2017-08-18T04:26:42.949Z,28
2017-08-18T04:27:42.353Z,32
2017-08-18T04:28:42.646Z,36
2017-08-18T04:29:42.726Z,36
2017-08-18T04:30:43.073Z,40
2017-08-18T04:31:43.076Z,40
2017-08-18T04:32:42.806Z,40
2017-08-18T04:33:42.509Z,44
2017-08-18T04:34:42.859Z,44
2017-08-18T04:35:42.584Z,52
2017-08-18T04:36:42.617Z,60
2017-08-18T04:37:43.261Z,68
2017-08-18T04:38:42.994Z,84
2017-08-18T04:39:42.694Z,104
2017-08-18T04:40:43.035Z,128
2017-08-18T04:41:43.068Z,148
2017-08-18T04:42:43.094Z,160
2017-08-18T04:43:43.422Z,168
2017-08-18T04:44:43.143Z,168
2017-08-18T04:45:43.484Z,168
2017-08-18T04:46:43.518Z,164
2017-08-18T04:47:43.224Z,160
2017-08-18T04:48:42.946Z,152
2017-08-18T04:49:43.605Z,156
2017-08-18T04:50:43.332Z,160
2017-08-18T04:51:43.353Z,164
2017-08-18T04:52:43.679Z,172
2017-08-18T04:53:43.091Z,204
2017-08-18T04:54:43.435Z,236
2017-08-18T04:55:43.784Z,268
2017-08-18T04:56:43.182Z,292
2017-08-18T04:57:43.534Z,296
2017-08-18T04:58:43.862Z,284
2017-08-18T04:59:43.576Z,284
2017-08-18T05:00:43.915Z,284
2017-08-18T05:01:43.936Z,280
2017-08-18T05:02:43.979Z,268
2017-08-18T05:03:43.699Z,232
2017-08-18T05:04:43.723Z,220
2017-08-18T05:05:44.081Z,220
2017-08-18T05:06:43.466Z,220
2017-08-18T05:07:43.833Z,232
2017-08-18T05:08:43.523Z,256
2017-08-18T05:09:44.151Z,272
2017-08-18T05:10:43.585Z,272
2017-08-18T05:11:43.291Z,264
2017-08-18T05:12:43.954Z,268
2017-08-18T05:13:43.664Z,260
2017-08-18T05:14:44.315Z,260
2017-08-18T05:15:44.036Z,260
2017-08-18T05:16:44.373Z,236
2017-08-18T05:17:44.398Z,220
2017-08-18T05:18:44.126Z,216
2017-08-18T05:19:44.457Z,236
2017-08-18T05:20:44.489Z,268
2017-08-18T05:21:44.550Z,300
2017-08-18T05:22:44.251Z,308
2017-08-18T05:23:44.570Z,312
2017-08-18T05:24:44.913Z,316
2017-08-18T05:25:44.007Z,344
2017-08-18T05:26:44.357Z,368
2017-08-18T05:27:44.064Z,368
2017-08-18T05:28:44.416Z,348
2017-08-18T05:29:45.044Z,316
2017-08-18T05:30:44.775Z,308
2017-08-18T05:31:44.817Z,324
2017-08-18T05:32:44.225Z,352
2017-08-18T05:33:44.880Z,352
2017-08-18T05:34:44.842Z,284
2017-08-18T05:35:44.605Z,284
2017-08-18T05:36:44.638Z,292
2017-08-18T05:37:44.991Z,280
2017-08-18T05:38:45.004Z,276
2017-08-18T05:39:44.403Z,304
2017-08-18T05:40:44.754Z,332
2017-08-18T05:41:45.104Z,328
2017-08-18T05:42:44.817Z,364
2017-08-18T05:43:44.835Z,412
2017-08-18T05:44:45.119Z,376
2017-08-18T05:45:44.585Z,300
2017-08-18T05:46:44.622Z,320
2017-08-18T05:47:44.978Z,352
2017-08-18T05:48:44.672Z,332
2017-08-18T05:49:45.012Z,300
2017-08-18T05:50:45.353Z,268
2017-08-18T05:51:44.766Z,304
2017-08-18T05:52:45.099Z,360
2017-08-18T05:53:45.434Z,388
2017-08-18T05:54:45.096Z,408
2017-08-18T05:55:45.189Z,444
2017-08-18T05:56:45.529Z,436
2017-08-18T05:57:45.563Z,352
2017-08-18T05:58:44.960Z,288
2017-08-18T05:59:45.864Z,240
2017-08-18T06:00:45.330Z,248
2017-08-18T06:01:45.683Z,284
2017-08-18T06:02:45.078Z,348
2017-08-18T06:03:45.728Z,428
2017-08-18T06:04:44.825Z,488
2017-08-18T06:05:45.169Z,488
2017-08-18T06:06:45.817Z,436
2017-08-18T06:07:45.844Z,404
2017-08-18T06:08:44.935Z,400
2017-08-18T06:09:45.591Z,432
2017-08-18T06:10:45.934Z,484
2017-08-18T06:11:45.651Z,600
2017-08-18T06:12:45.359Z,776
2017-08-18T06:13:45.696Z,948
2017-08-18T06:14:46.041Z,1000
2017-08-18T06:15:45.761Z,1104
2017-08-18T06:16:46.122Z,1300
2017-08-18T06:17:46.123Z,1264
2017-08-18T06:18:45.844Z,1180
2017-08-18T06:19:46.187Z,1260
2017-08-18T06:20:46.222Z,1476
2017-08-18T06:21:45.623Z,1512
2017-08-18T06:22:45.651Z,1248
2017-08-18T06:23:45.984Z,1084
2017-08-18T06:24:46.017Z,1088
2017-08-18T06:25:46.358Z,1228
2017-08-18T06:26:46.382Z,1396
2017-08-18T06:27:46.413Z,1500
2017-08-18T06:28:46.132Z,1652
2017-08-18T06:29:46.165Z,1668
2017-08-18T06:30:45.570Z,1556
2017-08-18T06:31:46.210Z,1316
2017-08-18T06:32:46.248Z,1124
2017-08-18T06:33:46.584Z,968
2017-08-18T06:34:46.617Z,996
2017-08-18T06:35:46.014Z,1064
2017-08-18T06:36:46.666Z,1020
2017-08-18T06:37:46.072Z,916
2017-08-18T06:38:46.740Z,884
2017-08-18T06:39:46.445Z,920
2017-08-18T06:40:47.114Z,1124
2017-08-18T06:41:46.554Z,1316
2017-08-18T06:42:46.552Z,1740
2017-08-18T06:43:46.569Z,1604
2017-08-18T06:44:45.965Z,1248
2017-08-18T06:45:46.914Z,1056
2017-08-18T06:46:46.647Z,884
2017-08-18T06:47:46.368Z,832
2017-08-18T06:48:46.088Z,832
2017-08-18T06:49:47.056Z,908
2017-08-18T06:50:46.706Z,996
2017-08-18T06:51:46.480Z,1084
2017-08-18T06:52:46.508Z,1156
2017-08-18T06:53:46.225Z,1204
2017-08-18T06:54:47.190Z,1276
2017-08-18T06:55:47.457Z,1472
2017-08-18T06:56:47.259Z,1436
2017-08-18T06:57:46.328Z,1480
2017-08-18T06:58:46.990Z,1648
2017-08-18T06:59:47.345Z,1972
2017-08-18T07:00:47.299Z,2608
2017-08-18T07:01:47.096Z,3032
2017-08-18T07:02:47.109Z,2660
2017-08-18T07:03:47.461Z,2700
2017-08-18T07:04:46.854Z,2384
2017-08-18T07:05:47.807Z,2100
2017-08-18T07:06:46.911Z,1896
2017-08-18T07:07:47.256Z,1916
2017-08-18T07:08:46.969Z,2120
2017-08-18T07:09:47.312Z,2444
2017-08-18T07:10:47.587Z,2968
2017-08-18T07:11:47.368Z,2664
2017-08-18T07:12:46.813Z,2388
2017-08-18T07:13:47.736Z,1788
2017-08-18T07:14:47.449Z,1264
2017-08-18T07:15:47.782Z,1032
2017-08-18T07:16:47.512Z,1100
2017-08-18T07:17:47.545Z,1632
2017-08-18T07:18:47.253Z,2164
2017-08-18T07:19:47.306Z,2600
2017-08-18T07:20:47.609Z,2588
2017-08-18T07:21:47.652Z,2624
2017-08-18T07:22:47.053Z,2616
2017-08-18T07:23:48.018Z,2008
2017-08-18T07:24:48.054Z,1560
2017-08-18T07:25:48.019Z,1796
2017-08-18T07:26:48.117Z,2200
2017-08-18T07:27:47.514Z,1624
2017-08-18T07:28:47.856Z,1200
2017-08-18T07:29:48.193Z,1184
2017-08-18T07:30:47.855Z,1440
2017-08-18T07:31:47.944Z,1776
2017-08-18T07:32:47.976Z,2244
2017-08-18T07:33:48.001Z,2688
2017-08-18T07:34:48.339Z,2836
2017-08-18T07:35:48.615Z,2908
2017-08-18T07:36:48.096Z,3084
2017-08-18T07:37:48.435Z,2352
2017-08-18T07:38:48.454Z,2184
2017-08-18T07:39:47.858Z,1816
2017-08-18T07:40:48.499Z,1872
2017-08-18T07:41:48.537Z,1584
2017-08-18T07:42:48.253Z,1780
2017-08-18T07:43:48.301Z,1796
2017-08-18T07:44:48.643Z,1356
2017-08-18T07:45:48.959Z,1668
2017-08-18T07:46:48.695Z,1632
2017-08-18T07:47:48.406Z,1840
2017-08-18T07:48:48.737Z,2124
2017-08-18T07:49:48.482Z,1732
2017-08-18T07:50:48.115Z,2196
2017-08-18T07:51:48.520Z,2100
2017-08-18T07:52:48.543Z,1300
2017-08-18T07:53:48.566Z,1976
2017-08-18T07:54:48.918Z,2692
2017-08-18T07:55:48.940Z,2928
2017-08-18T07:56:48.665Z,3476
2017-08-18T07:57:49.001Z,2932
2017-08-18T07:58:48.714Z,2556
2017-08-18T07:59:49.054Z,2996
2017-08-18T08:00:49.331Z,3248
2017-08-18T08:01:49.111Z,2900
2017-08-18T08:02:48.836Z,2380
2017-08-18T08:03:48.857Z,2564
2017-08-18T08:04:48.582Z,2904
2017-08-18T08:05:49.534Z,3548
2017-08-18T08:06:48.959Z,3920
2017-08-18T08:07:48.980Z,3756
2017-08-18T08:08:49.317Z,3908
2017-08-18T08:09:49.026Z,4100
2017-08-18T08:10:49.640Z,4440
2017-08-18T08:11:49.100Z,4748
2017-08-18T08:12:48.815Z,4684
2017-08-18T08:13:49.475Z,4704
2017-08-18T08:14:49.182Z,4120
2017-08-18T08:15:49.516Z,4008
2017-08-18T08:16:49.236Z,4044
2017-08-18T08:17:48.953Z,3752
2017-08-18T08:18:49.601Z,3512
2017-08-18T08:19:49.326Z,3288
2017-08-18T08:20:50.019Z,3572
2017-08-18T08:21:49.382Z,3668
2017-08-18T08:22:49.721Z,3364
2017-08-18T08:23:49.758Z,3308
2017-08-18T08:24:49.472Z,3884
2017-08-18T08:25:49.804Z,3952
2017-08-18T08:26:49.537Z,3824
2017-08-18T08:27:49.564Z,3852
2017-08-18T08:28:49.595Z,3876
2017-08-18T08:29:49.927Z,4068
2017-08-18T08:30:50.207Z,4460
2017-08-18T08:31:49.676Z,4436
2017-08-18T08:32:49.714Z,4228
2017-08-18T08:33:50.048Z,4104
2017-08-18T08:34:50.078Z,3664
2017-08-18T08:35:50.368Z,3164
2017-08-18T08:36:49.840Z,2988
2017-08-18T08:37:49.547Z,2760
2017-08-18T08:38:50.191Z,2664
2017-08-18T08:39:49.915Z,2940
2017-08-18T08:40:50.203Z,3612
2017-08-18T08:41:50.278Z,3888
2017-08-18T08:42:50.317Z,3768
2017-08-18T08:43:50.026Z,2676
2017-08-18T08:44:50.067Z,2588
2017-08-18T08:45:50.076Z,3088
2017-08-18T08:46:50.431Z,3640
2017-08-18T08:47:50.460Z,3840
2017-08-18T08:48:50.487Z,3544
2017-08-18T08:49:49.887Z,2928
2017-08-18T08:50:50.492Z,2852
2017-08-18T08:51:50.261Z,3172
2017-08-18T08:52:49.982Z,3492
2017-08-18T08:53:50.635Z,4532
2017-08-18T08:54:50.668Z,5224
2017-08-18T08:55:50.676Z,5328
2017-08-18T08:56:50.410Z,5736
2017-08-18T08:57:50.742Z,6572
2017-08-18T08:58:50.178Z,7048
2017-08-18T08:59:50.497Z,6204
2017-08-18T09:00:50.828Z,4924
2017-08-18T09:01:50.554Z,5516
2017-08-18T09:02:50.585Z,4812
2017-08-18T09:03:50.937Z,4360
2017-08-18T09:04:50.958Z,3596
2017-08-18T09:05:51.241Z,3584
2017-08-18T09:06:50.706Z,4692
2017-08-18T09:07:50.734Z,3712
2017-08-18T09:08:50.451Z,3736
2017-08-18T09:09:50.496Z,3772
2017-08-18T09:10:51.143Z,3428
2017-08-18T09:11:51.166Z,3216
2017-08-18T09:12:51.181Z,3028
2017-08-18T09:13:50.590Z,3156
2017-08-18T09:14:50.627Z,3608
2017-08-18T09:15:51.282Z,5032
2017-08-18T09:16:51.313Z,4724
2017-08-18T09:17:50.713Z,3440
2017-08-18T09:18:51.374Z,3132
2017-08-18T09:19:51.398Z,3648
2017-08-18T09:20:51.113Z,2956
2017-08-18T09:21:51.141Z,2808
2017-08-18T09:22:50.863Z,1684
2017-08-18T09:23:51.517Z,1728
2017-08-18T09:24:51.235Z,1712
2017-08-18T09:25:51.564Z,2312
2017-08-18T09:26:51.602Z,1984
2017-08-18T09:27:51.630Z,1780
2017-08-18T09:28:51.673Z,1852
2017-08-18T09:29:51.692Z,1888
2017-08-18T09:30:51.405Z,1724
2017-08-18T09:31:51.685Z,1916
2017-08-18T09:32:51.775Z,2208
2017-08-18T09:33:51.806Z,2080
2017-08-18T09:34:51.522Z,1892
2017-08-18T09:35:51.553Z,1524
2017-08-18T09:36:52.151Z,1596
2017-08-18T09:37:51.299Z,1792
2017-08-18T09:38:51.644Z,1976
2017-08-18T09:39:51.982Z,2736
2017-08-18T09:40:51.385Z,3764
2017-08-18T09:41:51.986Z,5188
2017-08-18T09:42:51.767Z,4364
2017-08-18T09:43:51.480Z,4152
2017-08-18T09:44:51.811Z,3660
2017-08-18T09:45:51.537Z,3496
2017-08-18T09:46:52.181Z,2976
2017-08-18T09:47:52.223Z,3652
2017-08-18T09:48:51.936Z,4200
2017-08-18T09:49:51.965Z,3668
2017-08-18T09:50:52.003Z,3056
2017-08-18T09:51:52.588Z,2148
2017-08-18T09:52:52.059Z,1732
2017-08-18T09:53:51.776Z,2016
2017-08-18T09:54:52.117Z,2444
2017-08-18T09:55:52.461Z,2368
2017-08-18T09:56:52.479Z,2240
2017-08-18T09:57:52.216Z,2540
2017-08-18T09:58:52.540Z,3440
2017-08-18T09:59:52.573Z,4400
2017-08-18T10:00:52.301Z,4164
2017-08-18T10:01:52.265Z,3576
2017-08-18T10:02:52.339Z,2648
2017-08-18T10:03:52.070Z,2784
2017-08-18T10:04:52.730Z,2180
2017-08-18T10:05:52.138Z,2076
2017-08-18T10:06:52.412Z,2528
2017-08-18T10:07:52.808Z,3604
2017-08-18T10:08:52.537Z,3848
2017-08-18T10:09:52.881Z,3600
2017-08-18T10:10:52.594Z,3512
2017-08-18T10:11:52.871Z,3232
2017-08-18T10:12:52.648Z,2724
2017-08-18T10:13:52.681Z,2488
2017-08-18T10:14:52.084Z,2856
2017-08-18T10:15:52.738Z,3492
2017-08-18T10:16:53.376Z,4180
2017-08-18T10:17:53.107Z,4272
2017-08-18T10:18:52.833Z,4412
2017-08-18T10:19:52.853Z,4892
2017-08-18T10:20:52.885Z,5392
2017-08-18T10:21:52.846Z,5664
2017-08-18T10:22:52.952Z,6228
2017-08-18T10:23:52.965Z,6556
2017-08-18T10:24:53.318Z,6556
2017-08-18T10:25:53.346Z,6656
2017-08-18T10:26:53.355Z,6352
2017-08-18T10:27:53.400Z,6104
2017-08-18T10:28:53.425Z,6464
2017-08-18T10:29:53.461Z,6544
2017-08-18T10:30:53.492Z,7484
2017-08-18T10:31:53.819Z,7908
2017-08-18T10:32:53.245Z,8608
2017-08-18T10:33:53.584Z,8032
2017-08-18T10:34:53.612Z,7668
2017-08-18T10:35:53.326Z,7984
2017-08-18T10:36:53.607Z,8588
2017-08-18T10:37:53.697Z,9136
2017-08-18T10:38:53.414Z,9172
2017-08-18T10:39:53.138Z,8824
2017-08-18T10:40:53.478Z,8508
2017-08-18T10:41:53.760Z,8628
2017-08-18T10:42:53.843Z,8860
2017-08-18T10:43:53.574Z,8744
2017-08-18T10:44:53.902Z,8844
2017-08-18T10:45:53.633Z,8720
2017-08-18T10:46:53.905Z,8312
2017-08-18T10:47:54.013Z,8500
2017-08-18T10:48:53.705Z,8708
2017-08-18T10:49:54.064Z,8860
2017-08-18T10:50:54.083Z,8744
2017-08-18T10:51:54.056Z,8768
2017-08-18T10:52:54.144Z,8612
2017-08-18T10:53:54.173Z,8684
2017-08-18T10:54:53.902Z,6636
2017-08-18T10:55:54.244Z,6460
2017-08-18T10:56:54.291Z,6892
2017-08-18T10:57:53.971Z,8028
2017-08-18T10:58:54.025Z,7552
2017-08-18T10:59:54.042Z,6700
2017-08-18T11:00:54.084Z,4608
2017-08-18T11:01:54.719Z,5936
2017-08-18T11:02:54.129Z,7180
2017-08-18T11:03:54.482Z,6864
2017-08-18T11:04:54.201Z,7324
2017-08-18T11:05:54.228Z,7728
2017-08-18T11:06:54.502Z,8344
2017-08-18T11:07:54.277Z,9092
2017-08-18T11:08:54.322Z,9108
2017-08-18T11:09:54.347Z,8168
2017-08-18T11:10:54.672Z,7636
2017-08-18T11:11:54.707Z,8412
2017-08-18T11:12:54.438Z,8908
2017-08-18T11:13:54.476Z,8048
2017-08-18T11:14:54.802Z,6984
2017-08-18T11:15:54.521Z,7456
2017-08-18T11:16:54.806Z,8100
2017-08-18T11:17:54.889Z,7352
2017-08-18T11:18:54.942Z,6936
2017-08-18T11:19:54.648Z,5708
2017-08-18T11:20:54.984Z,6156
2017-08-18T11:21:54.652Z,6036
2017-08-18T11:22:55.051Z,5904
2017-08-18T11:23:54.753Z,5004
2017-08-18T11:24:54.794Z,4400
2017-08-18T11:25:54.514Z,3600
2017-08-18T11:26:55.424Z,3376
2017-08-18T11:27:54.570Z,3600
2017-08-18T11:28:55.229Z,3428
2017-08-18T11:29:54.968Z,3368
2017-08-18T11:30:54.667Z,3148
2017-08-18T11:31:55.001Z,3696
2017-08-18T11:32:55.041Z,3956
2017-08-18T11:33:55.374Z,3888
2017-08-18T11:34:55.099Z,3500
2017-08-18T11:35:54.823Z,2948
2017-08-18T11:36:54.837Z,2964
2017-08-18T11:37:55.185Z,3812
2017-08-18T11:38:55.220Z,4896
2017-08-18T11:39:55.564Z,3916
2017-08-18T11:40:55.272Z,3528
2017-08-18T11:41:55.615Z,3872
2017-08-18T11:42:55.338Z,4132
2017-08-18T11:43:55.368Z,4836
2017-08-18T11:44:55.392Z,5960
2017-08-18T11:45:55.736Z,7248
2017-08-18T11:46:55.768Z,10284
2017-08-18T11:47:54.887Z,19680
2017-08-18T11:48:55.831Z,22272
2017-08-18T11:49:55.544Z,14948
2017-08-18T11:50:55.264Z,7732
2017-08-18T11:51:55.913Z,7312
2017-08-18T11:52:55.890Z,6288
2017-08-18T11:53:55.675Z,5016
2017-08-18T11:54:55.705Z,5212
2017-08-18T11:55:56.050Z,5148
2017-08-18T11:56:56.069Z,4612
2017-08-18T11:57:56.034Z,4472
2017-08-18T11:58:56.143Z,5012
2017-08-18T11:59:55.535Z,5664
2017-08-18T12:00:55.909Z,6372
2017-08-18T12:01:55.910Z,7732
2017-08-18T12:02:56.491Z,7132
2017-08-18T12:03:56.271Z,6056
2017-08-18T12:04:55.986Z,5756
2017-08-18T12:05:56.021Z,5636
2017-08-18T12:06:56.365Z,5824
2017-08-18T12:07:56.338Z,5792
2017-08-18T12:08:56.448Z,6164
2017-08-18T12:09:56.460Z,7196
2017-08-18T12:10:56.493Z,8888
2017-08-18T12:11:56.534Z,15780
2017-08-18T12:12:56.797Z,12476
2017-08-18T12:13:55.968Z,11096
2017-08-18T12:14:56.620Z,11248
2017-08-18T12:15:56.034Z,17172
2017-08-18T12:16:56.362Z,32736
2017-08-18T12:17:56.970Z,28160
2017-08-18T12:18:56.407Z,29760
2017-08-18T12:19:56.760Z,25952
2017-08-18T12:20:56.477Z,7572
2017-08-18T12:21:56.825Z,3260
2017-08-18T12:22:56.841Z,2320
2017-08-18T12:23:56.255Z,2320
2017-08-18T12:24:56.925Z,2096
2017-08-18T12:25:56.953Z,1820
2017-08-18T12:26:56.658Z,1676
2017-08-18T12:27:56.939Z,1648
2017-08-18T12:28:56.703Z,1696
2017-08-18T12:29:56.749Z,1752
2017-08-18T12:30:56.474Z,2068
2017-08-18T12:31:56.806Z,2616
2017-08-18T12:32:57.088Z,3068
2017-08-18T12:33:56.579Z,2736
2017-08-18T12:34:56.593Z,2924
2017-08-18T12:35:56.620Z,2992
2017-08-18T12:36:57.270Z,2948
2017-08-18T12:37:57.610Z,3256
2017-08-18T12:38:57.332Z,3032
2017-08-18T12:39:57.049Z,2616
2017-08-18T12:40:56.766Z,2992
2017-08-18T12:41:57.420Z,2688
2017-08-18T12:42:57.703Z,2724
2017-08-18T12:43:57.181Z,2672
2017-08-18T12:44:57.201Z,2176
2017-08-18T12:45:57.534Z,1996
2017-08-18T12:46:57.574Z,1700
2017-08-18T12:47:57.543Z,1700
2017-08-18T12:48:57.320Z,1608
2017-08-18T12:49:57.657Z,1652
2017-08-18T12:50:57.685Z,1848
2017-08-18T12:51:57.727Z,2424
2017-08-18T12:52:57.754Z,2772
2017-08-18T12:53:57.465Z,3012
2017-08-18T12:54:57.487Z,3224
2017-08-18T12:55:57.215Z,3312
2017-08-18T12:56:57.559Z,3228
2017-08-18T12:57:57.843Z,4156
2017-08-18T12:58:57.311Z,4332
2017-08-18T12:59:57.661Z,2808
2017-08-18T13:00:57.366Z,1852
2017-08-18T13:01:57.395Z,776
2017-08-18T13:02:58.004Z,376
2017-08-18T13:03:58.077Z,252
2017-08-18T13:04:57.802Z,260
2017-08-18T13:05:57.837Z,364
2017-08-18T13:06:58.168Z,432
2017-08-18T13:07:58.151Z,544
2017-08-18T13:08:58.242Z,1160
2017-08-18T13:09:57.951Z,1032
2017-08-18T13:10:57.990Z,1056
2017-08-18T13:11:57.711Z,1416
2017-08-18T13:12:58.068Z,1268
2017-08-18T13:13:57.764Z,1268
2017-08-18T13:14:58.110Z,1444
2017-08-18T13:15:58.131Z,1604
2017-08-18T13:16:58.163Z,1504
2017-08-18T13:17:57.866Z,1672
2017-08-18T13:18:58.481Z,1360
2017-08-18T13:19:58.242Z,1304
2017-08-18T13:20:58.278Z,1008
2017-08-18T13:21:58.615Z,796
2017-08-18T13:22:58.336Z,616
2017-08-18T13:23:58.300Z,660
2017-08-18T13:24:58.405Z,676
2017-08-18T13:25:58.733Z,740
2017-08-18T13:26:58.769Z,904
2017-08-18T13:27:58.797Z,956
2017-08-18T13:28:58.758Z,900
2017-08-18T13:29:58.547Z,1000
2017-08-18T13:30:58.887Z,1100
2017-08-18T13:31:58.919Z,980
2017-08-18T13:32:58.949Z,796
2017-08-18T13:33:59.228Z,720
2017-08-18T13:34:58.692Z,760
2017-08-18T13:35:59.046Z,936
2017-08-18T13:36:59.070Z,1036
2017-08-18T13:37:58.779Z,1104
2017-08-18T13:38:59.433Z,1048
2017-08-18T13:39:58.524Z,892
2017-08-18T13:40:59.175Z,708
2017-08-18T13:41:58.911Z,664
2017-08-18T13:42:58.616Z,700
2017-08-18T13:43:59.518Z,776
2017-08-18T13:44:59.297Z,784
2017-08-18T13:45:59.334Z,800
2017-08-18T13:46:59.384Z,904
2017-08-18T13:47:59.393Z,1072
2017-08-18T13:48:59.409Z,1240
2017-08-18T13:49:59.472Z,1188